NIEUW!!! Volg onze weer- en natuurfoto's op Instagram @ weerstationmaaseik.be

WS Maaseik 1 Meer informatie WS Maaseik 1


WS Maaseik 2 Meer informatie WS Maaseik 2


Regen radar Meer informatie rain snow radar


Bezoek onze andere website:

Vorige versie
weerstation Maaseik


Bezoek ook eens deze sites:

Weerstation Geleen

Weerstation Luyksgestel



Het weer levert geen direct gevaar op.    Er zijn geen waarschuwingen afgegeven.

METAR rapporten vliegvelden

   
EBBR - Brussels International Airport, Belgium
Afstand tot: W 14 km
Gewijzigd: 21-10-2019 12:50
Grotendeels bewolkt  
Grotendeels bewolkt  
   Wind: Zuiden 22.2 km/h
Wind: Zuiden 22.2 km/h
Temperatuur: 12°C
Dauwpunt: 9°C
Vochtigheid: 82%
Barometer: 1016 hPa
Bewolking: Mostly Cloudy
Zicht: meer dan 10 km
Bewolking: Gedeeltelijk bewolkt 1800 ft,
Grotendeels bewolkt 2600 ft
EBBR 211050Z 19012KT 170V230 9999 SCT018 BKN026 12/09 Q1016 NOSIG
EBBE - Beauvechain (Bevekom), Belgium
Afstand tot: ZZO 17 km
Gewijzigd: 21-10-2019 12:55
Grotendeels bewolkt  
Grotendeels bewolkt  
   Wind: ZZW 20.4 km/h
Wind: ZZW 20.4 km/h
Temperatuur: 12°C
Dauwpunt: 9°C
Vochtigheid: 82%
Barometer: 1016 hPa
Bewolking: Mostly Cloudy
Zicht: meer dan 10 km
Bewolking: Licht bewolkt 1800 ft,
Grotendeels bewolkt 2200 ft
EBBE 211055Z 21011KT 9999 FEW018 BKN022 12/09 Q1016 WHT WHT
EBDT - Schaffen, Belgium
Afstand tot: ONO 29 km
Gewijzigd: 21-10-2019 12:55
Grotendeels bewolkt  
Grotendeels bewolkt  
   Wind: ZZW 16.7 km/h
Wind: ZZW 16.7 km/h
Temperatuur: 14°C
Dauwpunt: 10°C
Vochtigheid: 77%
Barometer: 1016 hPa
Bewolking: Mostly Cloudy
Zicht: meer dan 10 km
Bewolking: Licht bewolkt 2500 ft,
Grotendeels bewolkt 3000 ft
EBDT 211055Z 20009KT 9999 FEW025 BKN030 14/10 Q1016 BLU BLU
EBAW - Antwerp/Deurne, Belgium
Afstand tot: NNW 38 km
Gewijzigd: 21-10-2019 12:50
Grotendeels bewolkt  
Grotendeels bewolkt  
   Wind: Zuiden 18.5 km/h
Wind: Zuiden 18.5 km/h
Temperatuur: 13°C
Dauwpunt: 10°C
Vochtigheid: 82%
Barometer: 1015 hPa
Bewolking: Mostly Cloudy
Zicht: meer dan 10 km
Bewolking: Gedeeltelijk bewolkt 1500 ft,
Grotendeels bewolkt 2000 ft
EBAW 211050Z 19010KT 150V220 9999 SCT015 BKN020 13/10 Q1015 NOSIG
EBCI - Charleroi/Gosselies, Belgium
Afstand tot: ZZW 51 km
Gewijzigd: 21-10-2019 12:50
Wat regen mogelijk, Grotendeels bewolkt  
Wat regen mogelijk, Grotendeels bewolkt  
   Wind: Zuiden 24.1 km/h
Wind: Zuiden 24.1 km/h
Temperatuur: 11°C
Dauwpunt: 8°C
Vochtigheid: 82%
Barometer: 1016 hPa
Bewolking: Mostly Cloudy
Zicht: meer dan 10 km
Bewolking: Licht bewolkt 1200 ft,
Grotendeels bewolkt 1500 ft
EBCI 211050Z 19013KT 9999 -RA FEW012 BKN015 11/08 Q1016 TEMPO BKN012
EBLG - Bierset/Liege, Belgium
Afstand tot: OZO 60 km
Gewijzigd: 21-10-2019 12:50
Grotendeels bewolkt  
Grotendeels bewolkt  
   Wind: Zuiden 24.1 km/h
Wind: Zuiden 24.1 km/h
Temperatuur: 12°C
Dauwpunt: 9°C
Vochtigheid: 82%
Barometer: 1017 hPa
Bewolking: Mostly Cloudy
Zicht: meer dan 10 km
Bewolking: Grotendeels bewolkt 2400 ft
EBLG 211050Z 19013KT 160V220 9999 BKN024 12/09 Q1017 NOSIG

Script ontwikkeld door  Saratoga-weather.org Aangepast voor de template door  Weerstation Leuven

U vindt ons ook hier:

Het Weer Aktueel

Weather Underground

AWEKAS